Aérodrome :
LOGIN :

S'inscrire | Disclaimer

   EN    FR    IT 

 










Légende :    VFR   VFR Marginal   IFR   IFR Intensif   IFR Très Intensif
Visi : 
Plafond : 
>= 8 km
>= 3000ft
5 à 8 km
1000 à 3000 ft
1500m à 5 km
500 à 1000 ft
800 à 1500m
200 à 500 ft
< 800m
< 200 ft
Symboles :   Orages  Brouillard  Fortes neiges  Fortes précipitations  Vent > 20 kt
SIGMETs :   Divers  Orages  Givrage  Turbulence  Onde Orograph.  Cendres Volcan.






- Altitude de l'aérodrome : 16 ft
- Code IATA : SDR


LEXJ - Santander Cantabria

DERNIER METAR :
  • 210530Z 22006KT 190V250 9999 FEW036 11/05 Q1003

METARs EXPIRÉS :
  • 210500Z 22005KT CAVOK 11/05 Q1003
  • 210430Z 23006KT 190V250 9999 FEW083 11/06 Q1003
  • 210400Z AUTO 24005KT 170V290 7000 NSC 11/05 Q1003
  • 210330Z AUTO 24004KT 190V320 7000 FEW080 11/05 Q1003
  • 210300Z AUTO 24006KT 210V270 8000 NSC 11/05 Q1003
  • 210230Z AUTO 24007KT 7000 NSC 12/05 Q1003

TAF TAF LEXJ
Valide du 21 à 03h jusqu'au 22 à 03h UTC


210200Z 2103/2203 23009KT 9999 SCT050 TX15/2115Z TN07/2107Z



MET'MAP, la Météo Aéronautique d'un coup d'oeil ! - Copyright ORBIFLY Décembre 2007 - Disclaimer

ORBIFLY MET'MAP TEAM :

Programmation & Développement : Alexandra Zaïnal
Conception & Développement : Baudouin d'Aumeries
Co-Programmation & Développement : Marc-Olivier Méhu
Soutien technique & logistique : Manuel Goepfert

Contact : metmap@orbifly.com




SOURCES & CREDITS :

   NOAA